This is the latest recevied weather packets stored in our database for station/object KB4JAC-13. If no packets are shown the sender has not sent any weather packets the latest 10 day(s).
| Time | Temp. | Humidity | Pressure | Rain* | Wind** | Luminosity | Snow |
|---|---|---|---|---|---|---|---|
| 1788564897 | 31.11° C | 69% | 989 hPa | 0 mm | - | - | - |
| 1788564296 | 32.22° C | 67% | 988.7 hPa | 0 mm | - | - | - |
| 1788563695 | 33.33° C | 64% | 988.8 hPa | 0 mm | - | - | - |
| 1788563094 | 33.33° C | 62% | 988.8 hPa | 0 mm | - | - | - |
| 1788562493 | 33.89° C | 63% | 988.8 hPa | 0 mm | - | - | - |
| 1788561892 | 33.89° C | 59% | 988.7 hPa | 0 mm | - | - | - |
| 1788561292 | 33.89° C | 58% | 988.7 hPa | 0 mm | - | - | - |
| 1788560691 | 34.44° C | 57% | 988.7 hPa | 0 mm | - | - | - |
| 1788560090 | 35° C | 55% | 988.5 hPa | 0 mm | - | - | - |
| 1788559489 | 35.56° C | 54% | 988.6 hPa | 0 mm | - | - | - |
| 1788558888 | 35.56° C | 54% | 988.3 hPa | 0 mm | - | - | - |
| 1788558287 | 35° C | 53% | 988.3 hPa | 0 mm | - | - | - |
| 1788557686 | 34.44° C | 53% | 988.9 hPa | 0 mm | - | - | - |
| 1788557085 | 35° C | 53% | 988.7 hPa | 0 mm | - | - | - |
| 1788556484 | 35.56° C | 51% | 988.8 hPa | 0 mm | - | - | - |
| 1788555884 | 35.56° C | 51% | 988.8 hPa | 0 mm | - | - | - |
| 1788555283 | 37.22° C | 45% | 988.8 hPa | 0 mm | - | - | - |
| 1788554682 | 38.33° C | 45% | 988.9 hPa | 0 mm | - | - | - |
| 1788554081 | 37.78° C | 45% | 988.8 hPa | 0 mm | - | - | - |
| 1788553480 | 38.89° C | 43% | 989.1 hPa | 0 mm | - | - | - |
| 1788552880 | 38.33° C | 43% | 989.2 hPa | 0 mm | - | - | - |
| 1788552279 | 39.44° C | 41% | 989.3 hPa | 0 mm | - | - | - |
| 1788551678 | 40° C | 42% | 989.3 hPa | 0 mm | - | - | - |
| 1788551077 | 38.33° C | 44% | 989.7 hPa | 0 mm | - | - | - |
| 1788550477 | 38.89° C | 44% | 989.5 hPa | 0 mm | - | - | - |
* Rain since midnight (hover to see other rain measurements)
** Current wind speed in m/s (hover to see current wind gust speed)